sensor_id;sensor_type;location;lat;lon;timestamp;temperature;humidity
3198;DHT22;1611;49.394;11.136;2022-09-09T00:01:50;14.00;72.30
3198;DHT22;1611;49.394;11.136;2022-09-09T00:04:26;14.00;72.50
3198;DHT22;1611;49.394;11.136;2022-09-09T00:07:03;14.00;72.40
3198;DHT22;1611;49.394;11.136;2022-09-09T00:09:34;14.00;72.50
3198;DHT22;1611;49.394;11.136;2022-09-09T00:12:11;13.90;72.50
3198;DHT22;1611;49.394;11.136;2022-09-09T00:14:45;14.00;72.70
3198;DHT22;1611;49.394;11.136;2022-09-09T00:17:24;13.90;72.90
3198;DHT22;1611;49.394;11.136;2022-09-09T00:19:58;13.90;73.00
3198;DHT22;1611;49.394;11.136;2022-09-09T00:22:29;13.90;72.60
3198;DHT22;1611;49.394;11.136;2022-09-09T00:25:02;13.90;72.80
3198;DHT22;1611;49.394;11.136;2022-09-09T00:27:34;13.90;73.20
3198;DHT22;1611;49.394;11.136;2022-09-09T00:30:14;13.90;73.10
3198;DHT22;1611;49.394;11.136;2022-09-09T00:32:44;13.80;73.20
3198;DHT22;1611;49.394;11.136;2022-09-09T00:35:17;13.90;73.50
3198;DHT22;1611;49.394;11.136;2022-09-09T00:37:46;13.90;73.80
3198;DHT22;1611;49.394;11.136;2022-09-09T00:40:22;13.90;73.90
3198;DHT22;1611;49.394;11.136;2022-09-09T00:43:03;13.90;73.70
3198;DHT22;1611;49.394;11.136;2022-09-09T00:48:33;13.90;74.10
3198;DHT22;1611;49.394;11.136;2022-09-09T00:51:09;13.90;74.40
3198;DHT22;1611;49.394;11.136;2022-09-09T00:53:54;13.90;74.50
3198;DHT22;1611;49.394;11.136;2022-09-09T00:56:27;13.90;74.40
3198;DHT22;1611;49.394;11.136;2022-09-09T00:59:07;13.90;74.30
3198;DHT22;1611;49.394;11.136;2022-09-09T01:01:38;14.00;74.20
3198;DHT22;1611;49.394;11.136;2022-09-09T01:04:11;14.00;74.50
3198;DHT22;1611;49.394;11.136;2022-09-09T01:06:41;13.90;74.40
3198;DHT22;1611;49.394;11.136;2022-09-09T01:09:17;13.90;74.40
3198;DHT22;1611;49.394;11.136;2022-09-09T01:11:55;13.90;74.40
3198;DHT22;1611;49.394;11.136;2022-09-09T01:14:32;13.90;74.70
3198;DHT22;1611;49.394;11.136;2022-09-09T01:17:04;13.90;74.90
3198;DHT22;1611;49.394;11.136;2022-09-09T01:19:39;13.90;74.70
3198;DHT22;1611;49.394;11.136;2022-09-09T01:22:16;13.90;75.50
3198;DHT22;1611;49.394;11.136;2022-09-09T01:24:53;13.90;74.70
3198;DHT22;1611;49.394;11.136;2022-09-09T01:27:23;13.90;74.60
3198;DHT22;1611;49.394;11.136;2022-09-09T01:29:50;13.90;74.50
3198;DHT22;1611;49.394;11.136;2022-09-09T01:32:40;13.80;74.40
3198;DHT22;1611;49.394;11.136;2022-09-09T01:35:10;13.90;74.70
3198;DHT22;1611;49.394;11.136;2022-09-09T01:37:38;13.90;74.90
3198;DHT22;1611;49.394;11.136;2022-09-09T01:40:06;13.90;74.90
3198;DHT22;1611;49.394;11.136;2022-09-09T01:42:34;13.80;74.60
3198;DHT22;1611;49.394;11.136;2022-09-09T01:45:02;13.80;74.70
3198;DHT22;1611;49.394;11.136;2022-09-09T01:47:29;13.80;74.80
3198;DHT22;1611;49.394;11.136;2022-09-09T01:49:56;13.90;74.90
3198;DHT22;1611;49.394;11.136;2022-09-09T01:52:23;13.90;74.80
3198;DHT22;1611;49.394;11.136;2022-09-09T01:54:49;13.90;74.80
3198;DHT22;1611;49.394;11.136;2022-09-09T01:57:20;13.90;74.60
3198;DHT22;1611;49.394;11.136;2022-09-09T02:00:00;13.90;74.50
3198;DHT22;1611;49.394;11.136;2022-09-09T02:02:32;13.90;74.40
3198;DHT22;1611;49.394;11.136;2022-09-09T02:05:10;13.90;74.10
3198;DHT22;1611;49.394;11.136;2022-09-09T02:07:41;13.90;74.20
3198;DHT22;1611;49.394;11.136;2022-09-09T02:10:11;13.90;74.20
3198;DHT22;1611;49.394;11.136;2022-09-09T02:12:41;13.90;74.40
3198;DHT22;1611;49.394;11.136;2022-09-09T02:15:19;13.90;73.90
3198;DHT22;1611;49.394;11.136;2022-09-09T02:17:49;13.90;74.00
3198;DHT22;1611;49.394;11.136;2022-09-09T02:20:18;13.90;74.10
3198;DHT22;1611;49.394;11.136;2022-09-09T02:22:48;13.90;74.10
3198;DHT22;1611;49.394;11.136;2022-09-09T02:25:18;14.00;74.10
3198;DHT22;1611;49.394;11.136;2022-09-09T02:27:47;13.90;74.00
3198;DHT22;1611;49.394;11.136;2022-09-09T02:30:18;14.00;74.10
3198;DHT22;1611;49.394;11.136;2022-09-09T02:32:47;13.90;74.00
3198;DHT22;1611;49.394;11.136;2022-09-09T02:35:18;13.90;73.90
3198;DHT22;1611;49.394;11.136;2022-09-09T02:37:46;13.90;74.30
3198;DHT22;1611;49.394;11.136;2022-09-09T02:40:14;13.90;74.00
3198;DHT22;1611;49.394;11.136;2022-09-09T02:42:43;14.00;73.90
3198;DHT22;1611;49.394;11.136;2022-09-09T02:45:12;14.00;73.90
3198;DHT22;1611;49.394;11.136;2022-09-09T02:47:47;14.10;74.00
3198;DHT22;1611;49.394;11.136;2022-09-09T02:50:19;14.10;73.70
3198;DHT22;1611;49.394;11.136;2022-09-09T02:52:59;14.10;73.20
3198;DHT22;1611;49.394;11.136;2022-09-09T02:55:35;14.20;73.10
3198;DHT22;1611;49.394;11.136;2022-09-09T02:58:05;14.20;73.70
3198;DHT22;1611;49.394;11.136;2022-09-09T03:00:35;14.20;72.80
3198;DHT22;1611;49.394;11.136;2022-09-09T03:03:04;14.30;72.90
3198;DHT22;1611;49.394;11.136;2022-09-09T03:05:31;14.30;72.80
3198;DHT22;1611;49.394;11.136;2022-09-09T03:07:58;14.30;72.60
3198;DHT22;1611;49.394;11.136;2022-09-09T03:10:25;14.30;72.60
3198;DHT22;1611;49.394;11.136;2022-09-09T03:12:52;14.30;72.50
3198;DHT22;1611;49.394;11.136;2022-09-09T03:15:19;14.30;72.40
3198;DHT22;1611;49.394;11.136;2022-09-09T03:17:46;14.30;72.50
3198;DHT22;1611;49.394;11.136;2022-09-09T03:20:14;14.20;72.60
3198;DHT22;1611;49.394;11.136;2022-09-09T03:22:41;14.10;72.90
3198;DHT22;1611;49.394;11.136;2022-09-09T03:25:10;14.10;72.60
3198;DHT22;1611;49.394;11.136;2022-09-09T03:27:37;14.10;72.70
3198;DHT22;1611;49.394;11.136;2022-09-09T03:30:04;14.10;73.00
3198;DHT22;1611;49.394;11.136;2022-09-09T03:32:31;14.10;72.80
3198;DHT22;1611;49.394;11.136;2022-09-09T03:34:58;14.10;72.60
3198;DHT22;1611;49.394;11.136;2022-09-09T03:37:26;14.00;72.60
3198;DHT22;1611;49.394;11.136;2022-09-09T03:39:53;14.10;72.90
3198;DHT22;1611;49.394;11.136;2022-09-09T03:42:22;14.00;73.10
3198;DHT22;1611;49.394;11.136;2022-09-09T03:44:48;14.00;73.30
3198;DHT22;1611;49.394;11.136;2022-09-09T03:47:16;14.00;73.00
3198;DHT22;1611;49.394;11.136;2022-09-09T03:49:44;13.90;73.00
3198;DHT22;1611;49.394;11.136;2022-09-09T03:52:11;14.00;72.90
3198;DHT22;1611;49.394;11.136;2022-09-09T03:54:39;14.00;73.20
3198;DHT22;1611;49.394;11.136;2022-09-09T03:57:08;14.00;72.90
3198;DHT22;1611;49.394;11.136;2022-09-09T03:59:34;14.00;73.20
3198;DHT22;1611;49.394;11.136;2022-09-09T04:02:01;14.00;73.40
3198;DHT22;1611;49.394;11.136;2022-09-09T04:04:28;14.00;73.30
3198;DHT22;1611;49.394;11.136;2022-09-09T04:06:55;14.10;73.10
3198;DHT22;1611;49.394;11.136;2022-09-09T04:09:22;14.10;73.30
3198;DHT22;1611;49.394;11.136;2022-09-09T04:11:50;14.00;73.20
3198;DHT22;1611;49.394;11.136;2022-09-09T04:14:18;14.00;73.30
3198;DHT22;1611;49.394;11.136;2022-09-09T04:16:45;14.00;73.30
3198;DHT22;1611;49.394;11.136;2022-09-09T04:19:12;14.00;73.60
3198;DHT22;1611;49.394;11.136;2022-09-09T04:21:40;13.90;73.90
3198;DHT22;1611;49.394;11.136;2022-09-09T04:24:07;14.00;73.90
3198;DHT22;1611;49.394;11.136;2022-09-09T04:26:35;13.90;74.30
3198;DHT22;1611;49.394;11.136;2022-09-09T04:29:04;13.90;73.90
3198;DHT22;1611;49.394;11.136;2022-09-09T04:31:32;13.90;74.30
3198;DHT22;1611;49.394;11.136;2022-09-09T04:33:59;13.90;74.00
3198;DHT22;1611;49.394;11.136;2022-09-09T04:36:30;13.90;74.20
3198;DHT22;1611;49.394;11.136;2022-09-09T04:38:57;14.00;74.20
3198;DHT22;1611;49.394;11.136;2022-09-09T04:41:24;14.00;74.30
3198;DHT22;1611;49.394;11.136;2022-09-09T04:43:51;13.90;74.00
3198;DHT22;1611;49.394;11.136;2022-09-09T04:46:20;14.00;74.00
3198;DHT22;1611;49.394;11.136;2022-09-09T04:48:48;14.00;74.10
3198;DHT22;1611;49.394;11.136;2022-09-09T04:51:15;14.00;74.10
3198;DHT22;1611;49.394;11.136;2022-09-09T04:53:42;13.90;73.70
3198;DHT22;1611;49.394;11.136;2022-09-09T04:56:11;14.00;73.90
3198;DHT22;1611;49.394;11.136;2022-09-09T04:58:38;14.00;73.80
3198;DHT22;1611;49.394;11.136;2022-09-09T05:01:08;13.90;73.80
3198;DHT22;1611;49.394;11.136;2022-09-09T05:03:37;13.90;73.90
3198;DHT22;1611;49.394;11.136;2022-09-09T05:06:08;14.00;73.90
3198;DHT22;1611;49.394;11.136;2022-09-09T05:08:36;14.00;73.90
3198;DHT22;1611;49.394;11.136;2022-09-09T05:11:03;14.00;73.70
3198;DHT22;1611;49.394;11.136;2022-09-09T05:13:30;14.00;73.70
3198;DHT22;1611;49.394;11.136;2022-09-09T05:15:58;14.00;73.70
3198;DHT22;1611;49.394;11.136;2022-09-09T05:18:25;14.00;73.50
3198;DHT22;1611;49.394;11.136;2022-09-09T05:20:58;14.00;73.30
3198;DHT22;1611;49.394;11.136;2022-09-09T05:23:25;14.00;74.30
3198;DHT22;1611;49.394;11.136;2022-09-09T05:25:58;14.10;74.60
3198;DHT22;1611;49.394;11.136;2022-09-09T05:28:25;14.10;73.50
3198;DHT22;1611;49.394;11.136;2022-09-09T05:30:56;14.20;73.20
3198;DHT22;1611;49.394;11.136;2022-09-09T05:33:23;14.30;73.10
3198;DHT22;1611;49.394;11.136;2022-09-09T05:35:57;14.30;72.40
3198;DHT22;1611;49.394;11.136;2022-09-09T05:38:23;14.40;72.10
3198;DHT22;1611;49.394;11.136;2022-09-09T05:40:51;14.50;72.10
3198;DHT22;1611;49.394;11.136;2022-09-09T05:43:17;14.60;71.70
3198;DHT22;1611;49.394;11.136;2022-09-09T05:45:45;14.70;70.70
3198;DHT22;1611;49.394;11.136;2022-09-09T05:48:13;14.70;70.90
3198;DHT22;1611;49.394;11.136;2022-09-09T05:50:40;14.80;71.20
3198;DHT22;1611;49.394;11.136;2022-09-09T05:53:09;14.70;70.70
3198;DHT22;1611;49.394;11.136;2022-09-09T05:55:36;14.80;70.50
3198;DHT22;1611;49.394;11.136;2022-09-09T05:58:02;14.80;70.30
3198;DHT22;1611;49.394;11.136;2022-09-09T06:00:29;14.80;70.20
3198;DHT22;1611;49.394;11.136;2022-09-09T06:02:57;14.80;70.20
3198;DHT22;1611;49.394;11.136;2022-09-09T06:05:23;14.80;69.80
3198;DHT22;1611;49.394;11.136;2022-09-09T06:07:54;14.80;70.70
3198;DHT22;1611;49.394;11.136;2022-09-09T06:10:22;14.70;70.00
3198;DHT22;1611;49.394;11.136;2022-09-09T06:12:51;14.60;70.50
3198;DHT22;1611;49.394;11.136;2022-09-09T06:15:18;14.60;71.10
3198;DHT22;1611;49.394;11.136;2022-09-09T06:17:45;14.60;70.40
3198;DHT22;1611;49.394;11.136;2022-09-09T06:20:12;14.60;70.70
3198;DHT22;1611;49.394;11.136;2022-09-09T06:22:39;14.70;71.00
3198;DHT22;1611;49.394;11.136;2022-09-09T06:25:08;14.70;70.80
3198;DHT22;1611;49.394;11.136;2022-09-09T06:27:36;14.90;70.80
3198;DHT22;1611;49.394;11.136;2022-09-09T06:30:03;15.00;70.60
3198;DHT22;1611;49.394;11.136;2022-09-09T06:32:30;15.10;69.60
3198;DHT22;1611;49.394;11.136;2022-09-09T06:35:00;15.20;67.30
3198;DHT22;1611;49.394;11.136;2022-09-09T06:37:27;15.40;67.60
3198;DHT22;1611;49.394;11.136;2022-09-09T06:39:54;15.60;67.20
3198;DHT22;1611;49.394;11.136;2022-09-09T06:42:21;15.70;66.20
3198;DHT22;1611;49.394;11.136;2022-09-09T06:44:49;15.70;65.90
3198;DHT22;1611;49.394;11.136;2022-09-09T06:47:17;15.80;66.40
3198;DHT22;1611;49.394;11.136;2022-09-09T06:49:44;15.90;64.90
3198;DHT22;1611;49.394;11.136;2022-09-09T06:52:11;15.90;65.10
3198;DHT22;1611;49.394;11.136;2022-09-09T06:54:38;16.00;64.50
3198;DHT22;1611;49.394;11.136;2022-09-09T06:57:05;16.00;64.30
3198;DHT22;1611;49.394;11.136;2022-09-09T06:59:33;16.20;64.80
3198;DHT22;1611;49.394;11.136;2022-09-09T07:02:01;16.30;64.30
3198;DHT22;1611;49.394;11.136;2022-09-09T07:04:27;16.40;62.20
3198;DHT22;1611;49.394;11.136;2022-09-09T07:06:54;16.50;62.50
3198;DHT22;1611;49.394;11.136;2022-09-09T07:09:21;16.60;61.40
3198;DHT22;1611;49.394;11.136;2022-09-09T07:11:49;16.70;60.70
3198;DHT22;1611;49.394;11.136;2022-09-09T07:14:17;16.80;60.80
3198;DHT22;1611;49.394;11.136;2022-09-09T07:16:44;17.00;60.30
3198;DHT22;1611;49.394;11.136;2022-09-09T07:19:14;17.20;60.40
3198;DHT22;1611;49.394;11.136;2022-09-09T07:21:41;17.30;58.40
3198;DHT22;1611;49.394;11.136;2022-09-09T07:24:08;17.30;58.30
3198;DHT22;1611;49.394;11.136;2022-09-09T07:26:37;17.30;56.60
3198;DHT22;1611;49.394;11.136;2022-09-09T07:29:04;17.30;56.70
3198;DHT22;1611;49.394;11.136;2022-09-09T07:31:34;17.30;57.50
3198;DHT22;1611;49.394;11.136;2022-09-09T07:34:02;17.30;57.60
3198;DHT22;1611;49.394;11.136;2022-09-09T07:36:32;17.40;57.20
3198;DHT22;1611;49.394;11.136;2022-09-09T07:39:00;17.50;56.90
3198;DHT22;1611;49.394;11.136;2022-09-09T07:41:30;17.50;56.90
3198;DHT22;1611;49.394;11.136;2022-09-09T07:43:57;17.70;57.00
3198;DHT22;1611;49.394;11.136;2022-09-09T07:46:25;17.70;56.70
3198;DHT22;1611;49.394;11.136;2022-09-09T07:48:54;17.70;55.50
3198;DHT22;1611;49.394;11.136;2022-09-09T07:51:23;17.60;55.30
3198;DHT22;1611;49.394;11.136;2022-09-09T07:53:54;17.70;54.70
3198;DHT22;1611;49.394;11.136;2022-09-09T07:56:21;17.70;54.40
3198;DHT22;1611;49.394;11.136;2022-09-09T07:58:49;17.90;54.70
3198;DHT22;1611;49.394;11.136;2022-09-09T08:01:18;18.00;54.90
3198;DHT22;1611;49.394;11.136;2022-09-09T08:03:46;18.00;52.60
3198;DHT22;1611;49.394;11.136;2022-09-09T08:06:13;18.10;53.00
3198;DHT22;1611;49.394;11.136;2022-09-09T08:08:41;18.20;53.20
3198;DHT22;1611;49.394;11.136;2022-09-09T08:11:11;18.30;53.60
3198;DHT22;1611;49.394;11.136;2022-09-09T08:13:40;18.50;53.30
3198;DHT22;1611;49.394;11.136;2022-09-09T08:16:09;18.60;52.30
3198;DHT22;1611;49.394;11.136;2022-09-09T08:18:37;18.70;50.60
3198;DHT22;1611;49.394;11.136;2022-09-09T08:21:06;18.80;50.10
3198;DHT22;1611;49.394;11.136;2022-09-09T08:23:33;18.90;49.70
3198;DHT22;1611;49.394;11.136;2022-09-09T08:26:09;18.90;46.10
3198;DHT22;1611;49.394;11.136;2022-09-09T08:28:38;19.00;46.40
3198;DHT22;1611;49.394;11.136;2022-09-09T08:31:08;19.10;45.60
3198;DHT22;1611;49.394;11.136;2022-09-09T08:33:34;19.20;45.40
3198;DHT22;1611;49.394;11.136;2022-09-09T08:36:04;19.20;45.30
3198;DHT22;1611;49.394;11.136;2022-09-09T08:38:30;19.40;44.10
3198;DHT22;1611;49.394;11.136;2022-09-09T08:41:17;19.50;42.90
3198;DHT22;1611;49.394;11.136;2022-09-09T08:43:50;19.50;44.20
3198;DHT22;1611;49.394;11.136;2022-09-09T08:46:29;19.60;42.20
3198;DHT22;1611;49.394;11.136;2022-09-09T08:49:04;19.80;42.90
3198;DHT22;1611;49.394;11.136;2022-09-09T08:51:32;19.80;43.30
3198;DHT22;1611;49.394;11.136;2022-09-09T08:54:02;19.90;42.30
3198;DHT22;1611;49.394;11.136;2022-09-09T08:56:31;20.00;43.20
3198;DHT22;1611;49.394;11.136;2022-09-09T08:59:01;20.10;42.60
3198;DHT22;1611;49.394;11.136;2022-09-09T09:01:42;20.20;41.00
3198;DHT22;1611;49.394;11.136;2022-09-09T09:04:28;20.20;43.20
3198;DHT22;1611;49.394;11.136;2022-09-09T09:07:05;20.30;41.80
3198;DHT22;1611;49.394;11.136;2022-09-09T09:09:45;20.40;41.90
3198;DHT22;1611;49.394;11.136;2022-09-09T09:12:16;20.40;39.90
3198;DHT22;1611;49.394;11.136;2022-09-09T09:14:46;20.50;39.50
3198;DHT22;1611;49.394;11.136;2022-09-09T09:17:16;20.60;39.60
3198;DHT22;1611;49.394;11.136;2022-09-09T09:19:43;20.60;39.30
3198;DHT22;1611;49.394;11.136;2022-09-09T09:22:17;20.60;39.60
3198;DHT22;1611;49.394;11.136;2022-09-09T09:24:51;20.80;40.70
3198;DHT22;1611;49.394;11.136;2022-09-09T09:27:25;20.80;38.40
3198;DHT22;1611;49.394;11.136;2022-09-09T09:29:58;20.90;38.00
3198;DHT22;1611;49.394;11.136;2022-09-09T09:32:26;21.00;38.70
3198;DHT22;1611;49.394;11.136;2022-09-09T09:34:56;21.10;37.70
3198;DHT22;1611;49.394;11.136;2022-09-09T09:37:28;21.20;37.20
3198;DHT22;1611;49.394;11.136;2022-09-09T09:39:56;21.40;39.40
3198;DHT22;1611;49.394;11.136;2022-09-09T09:42:22;21.80;39.00
3198;DHT22;1611;49.394;11.136;2022-09-09T09:44:49;22.20;36.90
3198;DHT22;1611;49.394;11.136;2022-09-09T09:47:19;22.40;34.20
3198;DHT22;1611;49.394;11.136;2022-09-09T09:49:52;22.50;34.30
3198;DHT22;1611;49.394;11.136;2022-09-09T09:52:22;22.60;36.20
3198;DHT22;1611;49.394;11.136;2022-09-09T09:54:50;22.90;34.40
3198;DHT22;1611;49.394;11.136;2022-09-09T09:57:18;23.00;33.80
3198;DHT22;1611;49.394;11.136;2022-09-09T09:59:49;23.30;32.50
3198;DHT22;1611;49.394;11.136;2022-09-09T10:02:20;23.50;33.50
3198;DHT22;1611;49.394;11.136;2022-09-09T10:05:01;23.70;30.90
3198;DHT22;1611;49.394;11.136;2022-09-09T10:07:28;24.00;28.60
3198;DHT22;1611;49.394;11.136;2022-09-09T10:09:57;24.30;28.80
3198;DHT22;1611;49.394;11.136;2022-09-09T10:12:34;24.40;27.20
3198;DHT22;1611;49.394;11.136;2022-09-09T10:15:16;24.00;26.10
3198;DHT22;1611;49.394;11.136;2022-09-09T10:17:54;23.90;28.70
3198;DHT22;1611;49.394;11.136;2022-09-09T10:20:32;24.10;27.80
3198;DHT22;1611;49.394;11.136;2022-09-09T10:23:10;24.20;28.00
3198;DHT22;1611;49.394;11.136;2022-09-09T10:25:55;24.30;27.20
3198;DHT22;1611;49.394;11.136;2022-09-09T10:28:33;24.80;26.50
3198;DHT22;1611;49.394;11.136;2022-09-09T10:31:12;25.50;22.70
3198;DHT22;1611;49.394;11.136;2022-09-09T10:33:49;26.10;21.70
3198;DHT22;1611;49.394;11.136;2022-09-09T10:36:19;26.60;19.90
3198;DHT22;1611;49.394;11.136;2022-09-09T10:38:49;26.90;20.00
3198;DHT22;1611;49.394;11.136;2022-09-09T10:41:21;27.00;20.00
3198;DHT22;1611;49.394;11.136;2022-09-09T10:44:12;27.00;21.20
3198;DHT22;1611;49.394;11.136;2022-09-09T10:46:53;27.00;21.60
3198;DHT22;1611;49.394;11.136;2022-09-09T10:49:32;27.70;20.30
3198;DHT22;1611;49.394;11.136;2022-09-09T10:52:09;28.70;17.90
3198;DHT22;1611;49.394;11.136;2022-09-09T10:54:50;28.90;16.10
3198;DHT22;1611;49.394;11.136;2022-09-09T10:57:26;28.90;17.30
3198;DHT22;1611;49.394;11.136;2022-09-09T10:59:57;29.20;16.70
3198;DHT22;1611;49.394;11.136;2022-09-09T11:02:27;29.00;17.50
3198;DHT22;1611;49.394;11.136;2022-09-09T11:04:58;28.60;17.80
3198;DHT22;1611;49.394;11.136;2022-09-09T11:07:33;28.00;19.00
3198;DHT22;1611;49.394;11.136;2022-09-09T11:10:03;27.50;19.10
3198;DHT22;1611;49.394;11.136;2022-09-09T11:12:34;27.00;20.00
3198;DHT22;1611;49.394;11.136;2022-09-09T11:15:06;26.70;20.70
3198;DHT22;1611;49.394;11.136;2022-09-09T11:17:38;26.20;21.90
3198;DHT22;1611;49.394;11.136;2022-09-09T11:20:11;25.60;23.50
3198;DHT22;1611;49.394;11.136;2022-09-09T11:22:44;25.30;25.30
3198;DHT22;1611;49.394;11.136;2022-09-09T11:25:16;24.90;26.30
3198;DHT22;1611;49.394;11.136;2022-09-09T11:27:55;24.70;26.00
3198;DHT22;1611;49.394;11.136;2022-09-09T11:30:29;24.50;26.80
3198;DHT22;1611;49.394;11.136;2022-09-09T11:36:18;24.20;27.00
3198;DHT22;1611;49.394;11.136;2022-09-09T11:38:51;24.00;30.40
3198;DHT22;1611;49.394;11.136;2022-09-09T11:41:19;24.10;30.00
3198;DHT22;1611;49.394;11.136;2022-09-09T11:43:48;24.60;27.80
3198;DHT22;1611;49.394;11.136;2022-09-09T11:46:18;25.40;28.40
3198;DHT22;1611;49.394;11.136;2022-09-09T11:48:57;26.90;24.40
3198;DHT22;1611;49.394;11.136;2022-09-09T11:51:28;29.40;19.20
3198;DHT22;1611;49.394;11.136;2022-09-09T11:53:57;31.40;15.00
3198;DHT22;1611;49.394;11.136;2022-09-09T11:56:29;32.90;14.20
3198;DHT22;1611;49.394;11.136;2022-09-09T11:58:59;32.10;12.60
3198;DHT22;1611;49.394;11.136;2022-09-09T12:01:34;31.40;14.10
3198;DHT22;1611;49.394;11.136;2022-09-09T12:04:14;30.30;15.30
3198;DHT22;1611;49.394;11.136;2022-09-09T12:06:44;29.30;16.50
3198;DHT22;1611;49.394;11.136;2022-09-09T12:09:20;28.30;19.00
3198;DHT22;1611;49.394;11.136;2022-09-09T12:11:48;27.30;21.10
3198;DHT22;1611;49.394;11.136;2022-09-09T12:14:23;26.60;22.60
3198;DHT22;1611;49.394;11.136;2022-09-09T12:17:09;26.20;23.60
3198;DHT22;1611;49.394;11.136;2022-09-09T12:19:36;26.40;21.40
3198;DHT22;1611;49.394;11.136;2022-09-09T12:22:09;26.30;21.80
3198;DHT22;1611;49.394;11.136;2022-09-09T12:24:45;26.10;23.50
3198;DHT22;1611;49.394;11.136;2022-09-09T12:27:19;26.20;23.80
3198;DHT22;1611;49.394;11.136;2022-09-09T12:29:54;26.50;22.00
3198;DHT22;1611;49.394;11.136;2022-09-09T12:32:25;26.60;20.60
3198;DHT22;1611;49.394;11.136;2022-09-09T12:34:53;26.40;21.90
3198;DHT22;1611;49.394;11.136;2022-09-09T12:37:28;26.40;20.10
3198;DHT22;1611;49.394;11.136;2022-09-09T12:39:56;26.10;20.00
3198;DHT22;1611;49.394;11.136;2022-09-09T12:42:24;25.80;22.20
3198;DHT22;1611;49.394;11.136;2022-09-09T12:44:53;25.40;24.00
3198;DHT22;1611;49.394;11.136;2022-09-09T12:47:22;25.20;25.00
3198;DHT22;1611;49.394;11.136;2022-09-09T12:49:51;25.00;23.20
3198;DHT22;1611;49.394;11.136;2022-09-09T12:52:25;24.90;23.20
3198;DHT22;1611;49.394;11.136;2022-09-09T12:54:52;24.70;26.10
3198;DHT22;1611;49.394;11.136;2022-09-09T12:57:20;24.60;24.90
3198;DHT22;1611;49.394;11.136;2022-09-09T12:59:48;24.40;23.60
3198;DHT22;1611;49.394;11.136;2022-09-09T13:02:19;24.30;24.20
3198;DHT22;1611;49.394;11.136;2022-09-09T13:04:47;24.40;24.50
3198;DHT22;1611;49.394;11.136;2022-09-09T13:07:16;26.40;22.20
3198;DHT22;1611;49.394;11.136;2022-09-09T13:09:44;27.50;19.50
3198;DHT22;1611;49.394;11.136;2022-09-09T13:12:14;27.10;20.80
3198;DHT22;1611;49.394;11.136;2022-09-09T13:14:44;26.30;19.70
3198;DHT22;1611;49.394;11.136;2022-09-09T13:17:18;25.50;22.90
3198;DHT22;1611;49.394;11.136;2022-09-09T13:19:46;24.50;23.40
3198;DHT22;1611;49.394;11.136;2022-09-09T13:22:21;23.90;26.50
3198;DHT22;1611;49.394;11.136;2022-09-09T13:24:59;23.30;30.80
3198;DHT22;1611;49.394;11.136;2022-09-09T13:27:30;22.50;34.40
3198;DHT22;1611;49.394;11.136;2022-09-09T13:29:57;21.90;40.20
3198;DHT22;1611;49.394;11.136;2022-09-09T13:32:25;21.60;41.40
3198;DHT22;1611;49.394;11.136;2022-09-09T13:34:54;21.40;44.20
3198;DHT22;1611;49.394;11.136;2022-09-09T13:37:23;21.20;45.00
3198;DHT22;1611;49.394;11.136;2022-09-09T13:39:54;21.20;46.90
3198;DHT22;1611;49.394;11.136;2022-09-09T13:42:24;21.20;48.80
3198;DHT22;1611;49.394;11.136;2022-09-09T13:44:52;21.70;49.80
3198;DHT22;1611;49.394;11.136;2022-09-09T13:47:20;22.50;46.90
3198;DHT22;1611;49.394;11.136;2022-09-09T13:49:48;22.80;45.80
3198;DHT22;1611;49.394;11.136;2022-09-09T13:52:16;22.70;46.00
3198;DHT22;1611;49.394;11.136;2022-09-09T13:54:47;22.50;47.80
3198;DHT22;1611;49.394;11.136;2022-09-09T13:57:17;22.40;47.00
3198;DHT22;1611;49.394;11.136;2022-09-09T13:59:45;22.10;49.20
3198;DHT22;1611;49.394;11.136;2022-09-09T14:02:13;21.70;50.90
3198;DHT22;1611;49.394;11.136;2022-09-09T14:04:40;21.50;52.00
3198;DHT22;1611;49.394;11.136;2022-09-09T14:07:10;21.20;53.50
3198;DHT22;1611;49.394;11.136;2022-09-09T14:09:37;20.80;54.60
3198;DHT22;1611;49.394;11.136;2022-09-09T14:12:05;20.50;57.10
3198;DHT22;1611;49.394;11.136;2022-09-09T14:14:33;20.10;59.50
3198;DHT22;1611;49.394;11.136;2022-09-09T14:17:00;19.90;60.70
3198;DHT22;1611;49.394;11.136;2022-09-09T14:19:27;19.70;60.00
3198;DHT22;1611;49.394;11.136;2022-09-09T14:21:53;19.50;58.70
3198;DHT22;1611;49.394;11.136;2022-09-09T14:24:20;19.30;59.30
3198;DHT22;1611;49.394;11.136;2022-09-09T14:26:47;19.20;58.60
3198;DHT22;1611;49.394;11.136;2022-09-09T14:29:13;19.10;61.50
3198;DHT22;1611;49.394;11.136;2022-09-09T14:31:41;19.20;61.50
3198;DHT22;1611;49.394;11.136;2022-09-09T14:34:08;19.20;62.20
3198;DHT22;1611;49.394;11.136;2022-09-09T14:36:35;19.40;63.00
3198;DHT22;1611;49.394;11.136;2022-09-09T14:39:02;19.60;62.60
3198;DHT22;1611;49.394;11.136;2022-09-09T14:41:29;19.60;62.00
3198;DHT22;1611;49.394;11.136;2022-09-09T14:43:56;19.60;63.20
3198;DHT22;1611;49.394;11.136;2022-09-09T14:46:23;19.50;63.60
3198;DHT22;1611;49.394;11.136;2022-09-09T14:48:51;19.40;63.60
3198;DHT22;1611;49.394;11.136;2022-09-09T14:51:19;19.30;64.20
3198;DHT22;1611;49.394;11.136;2022-09-09T14:53:48;19.40;64.50
3198;DHT22;1611;49.394;11.136;2022-09-09T14:56:16;19.50;65.60
3198;DHT22;1611;49.394;11.136;2022-09-09T14:58:44;19.80;64.00
3198;DHT22;1611;49.394;11.136;2022-09-09T15:01:13;20.00;61.80
3198;DHT22;1611;49.394;11.136;2022-09-09T15:03:41;20.10;57.60
3198;DHT22;1611;49.394;11.136;2022-09-09T15:06:12;20.20;56.40
3198;DHT22;1611;49.394;11.136;2022-09-09T15:08:41;20.20;55.80
3198;DHT22;1611;49.394;11.136;2022-09-09T15:11:09;20.20;54.50
3198;DHT22;1611;49.394;11.136;2022-09-09T15:13:37;20.30;57.50
3198;DHT22;1611;49.394;11.136;2022-09-09T15:16:05;20.30;57.80
3198;DHT22;1611;49.394;11.136;2022-09-09T15:18:32;21.30;56.50
3198;DHT22;1611;49.394;11.136;2022-09-09T15:20:59;21.90;50.80
3198;DHT22;1611;49.394;11.136;2022-09-09T15:23:31;21.90;50.90
3198;DHT22;1611;49.394;11.136;2022-09-09T15:25:57;21.80;50.90
3198;DHT22;1611;49.394;11.136;2022-09-09T15:28:24;21.60;52.90
3198;DHT22;1611;49.394;11.136;2022-09-09T15:30:53;21.30;53.30
3198;DHT22;1611;49.394;11.136;2022-09-09T15:33:20;21.10;52.30
3198;DHT22;1611;49.394;11.136;2022-09-09T15:35:47;20.90;54.20
3198;DHT22;1611;49.394;11.136;2022-09-09T15:38:15;20.70;54.20
3198;DHT22;1611;49.394;11.136;2022-09-09T15:40:44;20.40;54.90
3198;DHT22;1611;49.394;11.136;2022-09-09T15:43:12;20.30;55.80
3198;DHT22;1611;49.394;11.136;2022-09-09T15:45:39;20.00;56.50
3198;DHT22;1611;49.394;11.136;2022-09-09T15:48:05;19.80;57.80
3198;DHT22;1611;49.394;11.136;2022-09-09T15:50:32;19.50;53.80
3198;DHT22;1611;49.394;11.136;2022-09-09T15:52:59;19.40;56.30
3198;DHT22;1611;49.394;11.136;2022-09-09T15:55:26;19.30;58.50
3198;DHT22;1611;49.394;11.136;2022-09-09T15:57:54;19.20;58.10
3198;DHT22;1611;49.394;11.136;2022-09-09T16:00:23;19.00;59.50
3198;DHT22;1611;49.394;11.136;2022-09-09T16:02:50;18.90;59.60
3198;DHT22;1611;49.394;11.136;2022-09-09T16:05:17;18.80;59.90
3198;DHT22;1611;49.394;11.136;2022-09-09T16:07:44;18.60;59.20
3198;DHT22;1611;49.394;11.136;2022-09-09T16:10:11;18.60;58.80